Terminal Aerodrome Forecast
Issued by NWS Lake Charles, LA

Home | Current Version | Previous Version | Text Only | Print | Product List | Glossary On
Versions: 1 2 3 4 5 6 7 8 9 10 11 12 13 14 15
189
FTUS44 KLCH 271120
TAFLCH
TAF
KLCH 271120Z 2712/2812 18008KT P6SM SCT010 OVC020
     FM271500 19012G18KT P6SM BKN015 OVC030
     FM271800 19012G18KT P6SM BKN035
     FM280100 18006KT P6SM OVC015=

USA.gov is the U.S. government's official web portal to all federal, state and local government web resources and services.